Time;durP1;ratioP1;P1;durP2;ratioP2;P2;SDS_P1;SDS_P2;PMS_P1;PMS_P2;Temp;Humidity;BMP_temperature;BMP_pressure;BME280_temperature;BME280_humidity;BME280_pressure;Samples;Min_cycle;Max_cycle;Signal;HPM_P1;HPM_P2
2021/05/11 00:00:52;;;;;;;11.47;5.13;;;13.20;90.70;;;;;;5080793;28;20179;-86
2021/05/11 00:03:18;;;;;;;7.90;4.90;;;13.10;90.90;;;;;;5080962;28;20179;-86
2021/05/11 00:05:43;;;;;;;9.13;5.40;;;13.10;91.20;;;;;;5075560;28;20221;-86
2021/05/11 00:08:09;;;;;;;11.27;5.53;;;13.10;91.20;;;;;;5072998;28;20558;-86
2021/05/11 00:10:34;;;;;;;8.00;5.30;;;13.10;91.20;;;;;;5075829;28;20225;-86
2021/05/11 00:13:00;;;;;;;7.73;4.90;;;13.10;91.40;;;;;;5076071;28;20730;-86
2021/05/11 00:15:26;;;;;;;7.97;5.20;;;13.10;91.30;;;;;;5075298;28;20191;-86
2021/05/11 00:17:51;;;;;;;11.17;5.23;;;13.10;91.50;;;;;;5076187;28;20223;-86
2021/05/11 00:20:19;;;;;;;7.73;5.27;;;13.00;91.60;;;;;;5078483;28;20168;-86
2021/05/11 00:22:46;;;;;;;6.20;5.40;;;13.00;91.70;;;;;;5075652;28;20171;-86
2021/05/11 00:25:12;;;;;;;10.37;5.07;;;13.00;91.80;;;;;;5076092;28;20524;-86
2021/05/11 00:27:39;;;;;;;9.67;5.90;;;13.00;91.80;;;;;;5074775;28;20182;-86
2021/05/11 00:30:05;;;;;;;7.87;5.80;;;13.00;91.80;;;;;;5077881;28;20198;-86
2021/05/11 00:32:31;;;;;;;14.03;6.40;;;13.10;91.90;;;;;;5078348;28;20172;-86
2021/05/11 00:34:56;;;;;;;7.90;4.97;;;13.10;91.90;;;;;;5077821;28;20180;-86
2021/05/11 00:37:22;;;;;;;5.90;5.27;;;13.00;91.90;;;;;;5077349;28;20203;-86
2021/05/11 00:39:48;;;;;;;7.43;5.10;;;13.00;92.00;;;;;;5077708;28;20207;-86
2021/05/11 00:42:13;;;;;;;11.43;5.77;;;13.00;92.20;;;;;;5077737;28;20263;-86
2021/05/11 00:44:39;;;;;;;7.83;5.43;;;13.00;92.10;;;;;;5077527;28;20252;-86
2021/05/11 00:47:04;;;;;;;8.47;4.63;;;13.00;92.30;;;;;;5075228;28;20191;-86
2021/05/11 00:49:32;;;;;;;7.43;4.80;;;12.90;92.50;;;;;;5076113;28;20180;-86
2021/05/11 00:51:59;;;;;;;6.50;4.77;;;12.90;92.50;;;;;;5078252;28;20194;-86
2021/05/11 00:54:25;;;;;;;6.77;4.80;;;12.90;92.60;;;;;;5077231;28;20183;-86
2021/05/11 00:56:52;;;;;;;7.47;5.20;;;12.80;92.40;;;;;;5073549;28;20283;-86
2021/05/11 00:59:27;;;;;;;7.20;5.13;;;12.80;92.50;;;;;;5071753;28;20198;-87
2021/05/11 01:01:54;;;;;;;5.13;4.37;;;12.80;92.30;;;;;;5073147;28;20225;-88
2021/05/11 01:04:20;;;;;;;9.43;4.53;;;12.70;92.30;;;;;;5071829;28;20553;-88
2021/05/11 01:06:46;;;;;;;9.77;4.27;;;12.70;92.30;;;;;;5071670;28;20308;-88
2021/05/11 01:09:12;;;;;;;6.67;4.20;;;12.70;92.30;;;;;;5072998;28;20199;-89
2021/05/11 01:11:38;;;;;;;6.83;4.20;;;12.70;92.40;;;;;;5073037;28;20176;-89
2021/05/11 01:14:05;;;;;;;6.53;4.43;;;12.60;92.50;;;;;;5072987;28;20176;-88
2021/05/11 01:16:32;;;;;;;8.30;4.20;;;12.60;92.30;;;;;;5071686;28;20201;-89
2021/05/11 01:19:11;;;;;;;6.03;3.53;;;12.50;91.90;;;;;;5071580;28;20199;-88
2021/05/11 01:50:34;;;;;;;8.07;4.33;;;12.10;93.30;;;;;;5076505;28;20524;-89
2021/05/11 01:55:37;;;;;;;14.23;4.80;;;12.00;93.50;;;;;;5076461;28;20187;-89
2021/05/11 02:22:42;;;;;;;10.53;5.43;;;11.90;94.10;;;;;;5076007;28;20162;-88
2021/05/11 02:25:09;;;;;;;12.23;6.70;;;11.90;94.10;;;;;;5074368;28;20592;-88
2021/05/11 02:27:38;;;;;;;6.83;4.37;;;11.90;94.00;;;;;;5074300;28;20639;-88
2021/05/11 02:30:07;;;;;;;12.43;4.93;;;11.90;94.00;;;;;;5075540;28;20251;-88
2021/05/11 02:32:33;;;;;;;10.77;5.30;;;11.90;93.90;;;;;;5074004;28;20171;-88
2021/05/11 02:34:59;;;;;;;12.13;5.70;;;11.90;94.00;;;;;;5074130;28;20225;-88
2021/05/11 02:37:24;;;;;;;7.67;4.63;;;11.90;93.90;;;;;;5074627;28;20207;-88
2021/05/11 02:39:50;;;;;;;7.17;4.53;;;11.90;93.80;;;;;;5075407;28;20191;-88
2021/05/11 02:42:16;;;;;;;7.77;3.80;;;11.90;93.80;;;;;;5074131;28;20206;-88
2021/05/11 02:44:44;;;;;;;6.23;3.90;;;11.90;93.70;;;;;;5074114;28;20182;-89
2021/05/11 02:47:10;;;;;;;8.67;3.93;;;11.80;93.70;;;;;;5075225;28;20183;-88
2021/05/11 02:49:39;;;;;;;4.77;3.00;;;11.80;93.70;;;;;;5074042;28;20266;-89
2021/05/11 02:52:05;;;;;;;5.83;3.60;;;11.80;93.70;;;;;;5073951;28;20199;-89
2021/05/11 02:54:31;;;;;;;8.47;3.60;;;11.70;93.60;;;;;;5073913;28;20182;-88
2021/05/11 02:56:56;;;;;;;9.13;4.07;;;11.70;93.50;;;;;;5073854;28;20195;-88
2021/05/11 02:59:22;;;;;;;8.03;3.60;;;11.70;93.50;;;;;;5073964;28;20195;-89
2021/05/11 03:01:47;;;;;;;10.27;3.37;;;11.70;93.50;;;;;;5073696;28;20171;-88
2021/05/11 03:04:13;;;;;;;6.27;3.40;;;11.70;93.60;;;;;;5073869;28;20646;-88
2021/05/11 03:06:39;;;;;;;6.67;3.70;;;11.70;93.60;;;;;;5073678;28;20187;-88
2021/05/11 03:09:04;;;;;;;8.60;3.67;;;11.70;93.70;;;;;;5074962;28;20231;-88
2021/05/11 03:11:30;;;;;;;11.07;3.93;;;11.60;93.70;;;;;;5075170;28;20182;-88
2021/05/11 03:13:56;;;;;;;8.93;4.70;;;11.60;93.80;;;;;;5073619;28;20232;-88
2021/05/11 03:16:23;;;;;;;4.70;3.87;;;11.70;93.80;;;;;;5073381;28;20195;-88
2021/05/11 03:18:49;;;;;;;8.57;4.37;;;11.60;93.90;;;;;;5074543;28;20191;-89
2021/05/11 03:21:14;;;;;;;8.93;4.63;;;11.60;93.90;;;;;;5074491;28;20164;-89
2021/05/11 03:23:40;;;;;;;10.00;4.93;;;11.70;93.90;;;;;;5073258;28;20178;-88
2021/05/11 03:26:05;;;;;;;8.83;4.40;;;11.70;93.90;;;;;;5073071;28;20230;-87
2021/05/11 03:28:31;;;;;;;10.40;4.70;;;11.70;93.90;;;;;;5074013;28;20175;-87
2021/05/11 03:30:57;;;;;;;8.23;4.00;;;11.70;93.80;;;;;;5074178;28;20635;-87
2021/05/11 03:33:22;;;;;;;12.93;4.70;;;11.70;93.70;;;;;;5073433;28;20294;-87
2021/05/11 03:35:48;;;;;;;10.30;4.03;;;11.60;93.70;;;;;;5155869;23;20914;-83
2021/05/11 03:38:14;;;;;;;11.67;4.30;;;11.60;93.80;;;;;;5072708;28;20777;-83
2021/05/11 03:40:40;;;;;;;9.83;4.70;;;11.60;93.80;;;;;;5072659;28;20206;-83
2021/05/11 03:43:20;;;;;;;9.83;4.10;;;11.60;93.80;;;;;;5072314;28;20562;-83
2021/05/11 03:45:57;;;;;;;7.57;4.10;;;11.60;93.90;;;;;;5073857;28;20183;-83
2021/05/11 03:48:22;;;;;;;7.93;4.70;;;11.50;93.90;;;;;;5073834;28;20646;-83
2021/05/11 03:50:48;;;;;;;6.50;4.20;;;11.50;93.90;;;;;;5072495;28;20175;-83
2021/05/11 03:53:14;;;;;;;11.07;4.50;;;11.60;93.90;;;;;;5073715;28;20202;-83
2021/05/11 03:55:39;;;;;;;11.27;4.33;;;11.50;93.90;;;;;;5072393;28;20575;-83
2021/05/11 03:58:05;;;;;;;9.67;4.63;;;11.50;94.00;;;;;;5072350;28;20203;-83
2021/05/11 04:00:31;;;;;;;10.63;4.43;;;11.50;94.00;;;;;;5072275;28;20729;-83
2021/05/11 04:02:56;;;;;;;5.40;4.60;;;11.50;94.00;;;;;;5073964;28;20168;-83
2021/05/11 04:05:22;;;;;;;8.93;4.27;;;11.50;94.10;;;;;;5073476;28;20277;-83
2021/05/11 04:07:51;;;;;;;11.60;4.73;;;11.50;94.10;;;;;;5072273;28;20175;-84
2021/05/11 04:10:32;;;;;;;9.30;4.97;;;11.50;94.00;;;;;;5073764;28;20529;-83
2021/05/11 04:18:16;;;;;;;7.27;3.20;;;11.40;93.70;;;;;;5073435;28;20244;-83
2021/05/11 04:20:42;;;;;;;6.43;2.60;;;11.30;93.40;;;;;;5072075;28;20259;-83
2021/05/11 04:23:08;;;;;;;8.73;2.70;;;11.30;93.20;;;;;;5072147;28;20210;-83
2021/05/11 04:25:33;;;;;;;6.87;2.30;;;11.20;93.20;;;;;;5071990;28;20171;-84
2021/05/11 04:27:59;;;;;;;3.10;2.23;;;11.20;93.20;;;;;;5071992;28;20665;-84
2021/05/11 04:30:25;;;;;;;4.77;2.20;;;11.20;93.40;;;;;;5071931;28;20181;-85
2021/05/11 04:32:50;;;;;;;4.47;2.60;;;11.20;93.40;;;;;;5071978;28;20669;-84
2021/05/11 04:35:16;;;;;;;5.87;3.00;;;11.10;93.60;;;;;;5071936;28;20179;-85
2021/05/11 04:37:43;;;;;;;10.43;2.70;;;11.10;93.70;;;;;;5072964;28;20686;-84
2021/05/11 04:40:09;;;;;;;7.07;3.10;;;11.10;93.70;;;;;;5073152;28;20220;-85
2021/05/11 04:42:35;;;;;;;7.87;3.07;;;11.10;93.70;;;;;;5071918;28;20176;-83
2021/05/11 04:45:01;;;;;;;7.97;3.30;;;11.20;93.70;;;;;;5073179;28;20171;-85
2021/05/11 04:47:45;;;;;;;7.40;2.93;;;11.20;93.70;;;;;;5071835;28;20218;-84
2021/05/11 04:50:12;;;;;;;9.73;3.23;;;11.30;93.70;;;;;;5071793;28;20163;-84
2021/05/11 04:52:38;;;;;;;12.97;3.83;;;11.30;93.70;;;;;;5071790;28;20180;-84
2021/05/11 04:55:04;;;;;;;8.57;3.30;;;11.20;93.70;;;;;;5071801;28;20224;-85
2021/05/11 04:57:30;;;;;;;8.13;2.90;;;11.20;93.80;;;;;;5076908;28;20202;-85
2021/05/11 04:59:55;;;;;;;7.37;3.47;;;11.20;93.90;;;;;;5076990;28;20339;-85
2021/05/11 05:02:22;;;;;;;7.40;3.17;;;11.20;94.00;;;;;;5075800;28;20171;-84
2021/05/11 05:04:47;;;;;;;5.70;3.03;;;11.20;94.00;;;;;;5075934;28;20541;-84
2021/05/11 05:07:13;;;;;;;10.20;3.40;;;11.20;94.10;;;;;;5076961;28;20198;-84
2021/05/11 05:09:39;;;;;;;7.93;2.93;;;11.20;94.10;;;;;;5076868;28;20662;-84
2021/05/11 05:12:04;;;;;;;11.53;2.93;;;11.20;94.10;;;;;;5077145;28;20174;-84
2021/05/11 05:14:30;;;;;;;10.03;3.30;;;11.20;94.10;;;;;;5076961;28;20720;-85
2021/05/11 05:16:56;;;;;;;9.43;3.60;;;11.20;94.10;;;;;;5075371;28;20659;-85
2021/05/11 05:19:21;;;;;;;8.90;3.20;;;11.20;94.20;;;;;;5076907;28;20187;-85
2021/05/11 05:21:48;;;;;;;14.17;3.27;;;11.20;94.10;;;;;;5075346;28;20177;-84
2021/05/11 05:24:22;;;;;;;8.00;3.20;;;11.20;94.20;;;;;;5076619;28;20635;-84
2021/05/11 05:26:51;;;;;;;8.67;3.13;;;11.20;94.20;;;;;;5076488;28;20226;-84
2021/05/11 05:29:17;;;;;;;9.47;3.07;;;11.20;94.30;;;;;;5075287;28;20181;-85
2021/05/11 05:31:42;;;;;;;5.53;3.83;;;11.20;94.30;;;;;;5076428;28;20256;-84
2021/05/11 05:34:08;;;;;;;7.93;3.30;;;11.20;94.40;;;;;;5076425;28;20167;-84
2021/05/11 05:36:33;;;;;;;5.20;3.03;;;11.20;94.30;;;;;;5074898;28;20214;-84
2021/05/11 05:38:59;;;;;;;8.50;3.50;;;11.20;94.30;;;;;;5076233;28;20651;-84
2021/05/11 05:41:25;;;;;;;10.30;3.90;;;11.20;94.30;;;;;;5076256;28;20242;-84
2021/05/11 05:43:51;;;;;;;7.03;3.47;;;11.20;94.30;;;;;;5076213;28;20231;-85
2021/05/11 05:46:18;;;;;;;6.53;2.80;;;11.20;94.30;;;;;;5074869;28;20200;-85
2021/05/11 05:48:44;;;;;;;5.20;2.73;;;11.20;94.40;;;;;;5076117;28;20521;-85
2021/05/11 05:51:11;;;;;;;11.40;3.90;;;11.20;94.50;;;;;;5076125;28;20178;-85
2021/05/11 05:53:38;;;;;;;8.17;3.30;;;11.20;94.50;;;;;;5076039;28;20171;-85
2021/05/11 05:56:05;;;;;;;7.50;3.60;;;11.20;94.60;;;;;;5075958;28;20198;-85
2021/05/11 05:58:32;;;;;;;6.13;3.13;;;11.20;94.70;;;;;;5075845;28;20718;-84
2021/05/11 06:01:02;;;;;;;8.17;3.63;;;11.20;94.70;;;;;;5074693;28;20176;-85
2021/05/11 06:03:34;;;;;;;7.30;3.63;;;11.20;94.70;;;;;;5075935;28;20608;-84
2021/05/11 06:06:00;;;;;;;8.27;3.73;;;11.10;94.70;;;;;;5074402;28;20573;-84
2021/05/11 06:08:27;;;;;;;7.77;3.93;;;11.10;94.70;;;;;;5074126;28;20266;-84
2021/05/11 06:10:59;;;;;;;9.50;3.77;;;11.10;94.70;;;;;;5074456;28;20256;-84
2021/05/11 06:13:30;;;;;;;4.90;2.83;;;11.10;94.70;;;;;;5074503;28;20183;-84
2021/05/11 06:18:40;;;;;;;7.63;3.20;;;11.20;94.60;;;;;;5076018;28;20256;-84
2021/05/11 06:21:06;;;;;;;9.93;3.33;;;11.10;94.40;;;;;;5075664;28;20164;-84
2021/05/11 06:23:31;;;;;;;7.83;3.23;;;11.10;94.40;;;;;;5074291;28;20705;-84
2021/05/11 06:25:57;;;;;;;10.97;3.27;;;11.20;94.40;;;;;;5075440;28;20285;-84
2021/05/11 06:28:24;;;;;;;6.03;2.90;;;11.10;94.20;;;;;;5074188;28;20217;-84
2021/05/11 06:30:49;;;;;;;9.83;3.53;;;11.20;94.10;;;;;;5075364;28;20201;-83
2021/05/11 06:33:15;;;;;;;7.00;2.90;;;11.20;94.10;;;;;;5075500;28;20199;-84
2021/05/11 06:35:41;;;;;;;5.53;2.87;;;11.20;94.10;;;;;;5074926;28;20188;-84
2021/05/11 06:38:06;;;;;;;4.43;2.70;;;11.10;94.00;;;;;;5075413;28;20191;-84
2021/05/11 06:40:34;;;;;;;6.03;2.87;;;11.20;94.00;;;;;;5075096;28;20618;-84
2021/05/11 06:43:00;;;;;;;7.50;3.00;;;11.20;94.10;;;;;;5073744;28;20270;-84
2021/05/11 06:46:06;;;;;;;10.00;2.97;;;11.20;94.20;;;;;;5074935;28;20175;-84
2021/05/11 06:48:30;;;;;;;8.70;3.17;;;11.10;94.20;;;;;;5074802;28;20170;-84
2021/05/11 06:53:44;;;;;;;5.90;2.67;;;11.10;94.20;;;;;;5075405;28;20155;-84
2021/05/11 06:56:12;;;;;;;5.87;3.03;;;11.10;94.20;;;;;;5073501;28;20195;-83
2021/05/11 06:58:38;;;;;;;7.83;3.73;;;11.10;94.20;;;;;;5074922;28;20281;-84
2021/05/11 07:01:04;;;;;;;5.87;2.83;;;11.10;94.30;;;;;;5073369;28;20206;-84
2021/05/11 07:03:30;;;;;;;7.73;2.70;;;11.20;94.10;;;;;;5074703;28;20171;-84
2021/05/11 07:05:56;;;;;;;4.77;2.63;;;11.10;93.90;;;;;;5074595;28;20198;-84
2021/05/11 07:08:35;;;;;;;4.13;2.73;;;11.10;93.80;;;;;;5074781;28;20221;-83
2021/05/11 07:11:09;;;;;;;7.33;3.47;;;11.20;93.70;;;;;;5075006;28;20202;-84
2021/05/11 07:13:34;;;;;;;4.87;2.60;;;11.10;93.70;;;;;;5074381;28;20156;-84
2021/05/11 07:16:00;;;;;;;7.77;2.50;;;11.20;93.70;;;;;;5073020;28;20195;-84
2021/05/11 07:18:28;;;;;;;12.13;2.63;;;11.20;93.80;;;;;;5073340;28;20195;-84
2021/05/11 07:20:59;;;;;;;6.63;2.80;;;11.20;93.80;;;;;;5074283;28;20221;-84
2021/05/11 07:23:26;;;;;;;2.80;2.03;;;11.20;93.50;;;;;;5074199;28;20171;-84
2021/05/11 07:31:16;;;;;;;5.07;2.30;;;11.20;93.40;;;;;;5074476;28;20159;-84
2021/05/11 07:33:44;;;;;;;6.43;2.63;;;11.30;93.60;;;;;;5072675;28;20228;-84
2021/05/11 07:36:11;;;;;;;3.57;1.77;;;11.20;93.00;;;;;;5072481;28;20221;-84
2021/05/11 07:38:37;;;;;;;2.63;1.90;;;11.20;92.90;;;;;;5073862;28;20187;-84
2021/05/11 07:41:04;;;;;;;5.50;2.57;;;11.20;93.10;;;;;;5072596;28;20178;-84
2021/05/11 07:43:31;;;;;;;6.60;2.20;;;11.20;92.90;;;;;;5072532;28;20206;-84
2021/05/11 08:15:39;;;;;;;6.70;2.37;;;11.90;92.90;;;;;;5073824;28;20190;-84
2021/05/11 08:27:28;;;;;;;4.70;1.93;;;11.70;92.10;;;;;;5073820;28;20213;-84
2021/05/11 08:29:03;;;;;;;6.60;2.13;;;11.70;92.40;;;;;;5073086;28;20236;-84
2021/05/11 08:31:28;;;;;;;6.37;2.40;;;11.60;92.50;;;;;;5071728;28;20179;-83
2021/05/11 08:33:54;;;;;;;2.80;1.83;;;11.60;92.30;;;;;;5073174;28;20261;-84
2021/05/11 08:36:19;;;;;;;2.60;1.87;;;11.60;92.10;;;;;;5071791;28;20283;-83
2021/05/11 08:38:45;;;;;;;8.87;2.40;;;11.60;91.80;;;;;;5071760;28;20719;-83
2021/05/11 08:41:10;;;;;;;4.20;2.00;;;11.60;92.30;;;;;;5073151;28;20175;-83
2021/05/11 08:43:40;;;;;;;4.73;2.40;;;11.60;92.40;;;;;;5072055;28;20635;-83
2021/05/11 08:46:08;;;;;;;6.53;2.20;;;11.60;92.40;;;;;;5073580;28;20191;-83
2021/05/11 08:48:34;;;;;;;5.97;2.37;;;11.60;92.20;;;;;;5074908;28;20163;-83
2021/05/11 09:27:02;;;;;;;3.30;1.70;;;12.50;89.40;;;;;;5072766;28;20219;-83
2021/05/11 09:34:55;;;;;;;3.77;1.43;;;12.80;88.10;;;;;;5072956;28;20233;-83
2021/05/11 10:58:06;;;;;;;3.23;1.40;;;14.40;77.30;;;;;;4413457;26;20229;-94
2021/05/11 11:00:45;;;;;;;5.27;1.17;;;14.60;81.10;;;;;;5082794;28;20179;-93
2021/05/11 11:03:28;;;;;;;3.87;1.40;;;14.60;77.10;;;;;;5078900;28;20172;-94
2021/05/11 11:06:00;;;;;;;2.00;1.17;;;14.70;78.10;;;;;;5077417;28;20174;-94
2021/05/11 11:08:29;;;;;;;5.97;1.00;;;14.70;77.70;;;;;;5076205;28;20187;-94
2021/05/11 11:11:13;;;;;;;6.03;1.60;;;14.70;75.90;;;;;;5077837;28;20171;-94
2021/05/11 11:13:53;;;;;;;4.27;1.70;;;14.70;77.80;;;;;;5082290;28;20179;-94
2021/05/11 11:16:20;;;;;;;3.50;1.50;;;14.80;77.30;;;;;;5080062;28;20218;-93
2021/05/11 11:18:47;;;;;;;2.40;1.13;;;15.00;74.80;;;;;;5074215;28;20272;-94
2021/05/11 11:23:45;;;;;;;8.70;1.50;;;14.80;74.50;;;;;;5076629;28;20172;-89
2021/05/11 11:26:13;;;;;;;6.33;2.37;;;15.00;75.10;;;;;;5074415;28;20274;-90
2021/05/11 11:28:40;;;;;;;1.80;1.10;;;15.20;76.90;;;;;;5074324;28;20179;-90
2021/05/11 11:31:26;;;;;;;1.60;0.90;;;15.00;73.80;;;;;;5074312;28;20182;-89
2021/05/11 11:33:52;;;;;;;3.17;0.80;;;14.90;73.30;;;;;;5074387;28;20207;-90
2021/05/11 11:36:32;;;;;;;1.03;0.90;;;15.00;72.20;;;;;;5056840;28;20671;-89
2021/05/11 11:39:00;;;;;;;1.50;0.90;;;14.80;72.80;;;;;;5074496;28;20191;-89
2021/05/11 11:41:27;;;;;;;2.63;0.80;;;14.80;73.10;;;;;;5056230;28;20183;-89
2021/05/11 11:43:53;;;;;;;1.60;1.10;;;14.80;74.30;;;;;;5074337;28;20254;-89
2021/05/11 11:46:29;;;;;;;2.60;1.27;;;14.80;75.00;;;;;;5074300;28;20674;-90
2021/05/11 11:49:01;;;;;;;2.60;1.30;;;14.80;73.80;;;;;;5056084;28;20213;-89
2021/05/11 11:51:29;;;;;;;1.50;1.30;;;14.70;72.40;;;;;;5073984;28;20152;-89
2021/05/11 11:54:09;;;;;;;2.40;1.27;;;14.80;74.20;;;;;;5056445;28;20697;-89
2021/05/11 11:59:19;;;;;;;2.20;1.17;;;14.60;73.90;;;;;;5073945;28;20202;-89
2021/05/11 12:01:58;;;;;;;2.03;1.20;;;14.50;74.10;;;;;;5073787;28;20172;-89
2021/05/11 12:04:25;;;;;;;6.23;1.10;;;14.50;73.90;;;;;;5073592;28;20179;-89
2021/05/11 12:06:51;;;;;;;3.33;1.13;;;14.50;73.00;;;;;;5073863;28;20572;-89
2021/05/11 12:09:19;;;;;;;5.43;1.13;;;14.40;73.10;;;;;;5073887;28;20171;-89
2021/05/11 12:11:45;;;;;;;2.73;0.93;;;14.50;75.30;;;;;;5073679;28;20182;-89
2021/05/11 12:14:13;;;;;;;2.80;1.20;;;14.50;73.20;;;;;;5073726;28;20176;-89
2021/05/11 12:16:44;;;;;;;5.13;1.43;;;14.40;73.30;;;;;;5055666;28;20206;-89
2021/05/11 12:19:16;;;;;;;3.07;1.10;;;14.30;75.20;;;;;;5055648;28;20213;-89
2021/05/11 12:22:09;;;;;;;1.20;1.03;;;14.30;77.20;;;;;;5055787;28;20171;-89
2021/05/11 12:24:41;;;;;;;6.77;1.50;;;14.30;75.90;;;;;;5074102;28;20160;-89
2021/05/11 12:27:15;;;;;;;2.83;1.00;;;14.10;75.40;;;;;;5056356;28;20241;-90
2021/05/11 12:30:10;;;;;;;3.90;1.57;;;14.20;75.60;;;;;;5055609;28;20654;-89
2021/05/11 12:32:36;;;;;;;2.53;1.20;;;14.20;76.20;;;;;;5073712;28;20268;-89
2021/05/11 12:35:07;;;;;;;2.63;1.10;;;14.10;74.60;;;;;;5055470;28;20183;-89
2021/05/11 12:37:52;;;;;;;7.13;1.30;;;14.10;76.50;;;;;;5073344;28;20198;-89
2021/05/11 12:40:28;;;;;;;2.47;1.10;;;14.10;77.60;;;;;;5055657;28;20252;-89
2021/05/11 12:42:56;;;;;;;5.00;1.67;;;14.20;77.30;;;;;;5073375;28;20165;-89
2021/05/11 12:45:22;;;;;;;3.00;1.20;;;14.20;75.00;;;;;;5055644;28;20171;-90
2021/05/11 12:47:59;;;;;;;4.70;1.40;;;14.20;77.30;;;;;;5055216;28;20191;-89
2021/05/11 12:50:32;;;;;;;4.97;1.80;;;14.20;74.80;;;;;;5073261;28;20175;-89
2021/05/11 12:53:05;;;;;;;2.67;1.13;;;14.20;77.40;;;;;;5055309;28;20166;-89
2021/05/11 12:58:42;;;;;;;1.90;1.20;;;14.30;75.00;;;;;;5073638;28;20191;-89
2021/05/11 13:25:59;;;;;;;3.20;1.40;;;14.20;74.70;;;;;;5077339;28;20155;-89
2021/05/11 13:28:38;;;;;;;4.77;1.40;;;14.20;74.00;;;;;;5076788;28;20573;-85
2021/05/11 13:35:55;;;;;;;6.37;1.77;;;14.00;75.10;;;;;;5076696;28;20171;-86
2021/05/11 13:38:22;;;;;;;2.50;1.50;;;14.00;77.30;;;;;;5076636;28;20214;-85
2021/05/11 13:40:48;;;;;;;5.63;1.23;;;14.00;76.50;;;;;;5058789;28;20596;-85
2021/05/11 13:43:14;;;;;;;3.77;1.20;;;14.00;75.60;;;;;;5058327;28;20525;-85
2021/05/11 13:45:39;;;;;;;2.37;1.30;;;14.10;75.60;;;;;;5058323;28;20179;-85
2021/05/11 13:48:10;;;;;;;2.37;1.13;;;14.20;76.00;;;;;;5058149;28;20333;-85
2021/05/11 13:53:07;;;;;;;3.80;1.10;;;14.20;75.30;;;;;;5076464;28;20156;-85
2021/05/11 13:56:22;;;;;;;5.77;1.27;;;14.20;75.30;;;;;;5058224;28;20197;-85
2021/05/11 14:03:49;;;;;;;4.23;1.23;;;14.40;74.50;;;;;;5076051;28;20163;-85
2021/05/11 14:06:15;;;;;;;2.30;1.10;;;14.40;73.80;;;;;;5075826;28;20192;-86
2021/05/11 14:08:41;;;;;;;5.07;2.20;;;14.30;72.70;;;;;;5058042;28;20217;-85
2021/05/11 14:11:06;;;;;;;2.37;1.53;;;14.30;74.80;;;;;;5075781;28;20258;-85
2021/05/11 14:13:32;;;;;;;5.63;1.23;;;14.40;75.40;;;;;;5075989;28;20179;-86
2021/05/11 14:15:58;;;;;;;2.23;1.20;;;14.40;75.10;;;;;;5075919;28;20179;-85
2021/05/11 14:18:23;;;;;;;5.20;2.00;;;14.30;76.20;;;;;;5057722;28;20272;-86
2021/05/11 14:20:49;;;;;;;1.73;1.27;;;14.40;76.60;;;;;;5075761;28;20170;-85
2021/05/11 14:23:15;;;;;;;6.23;1.17;;;14.40;76.00;;;;;;5057688;28;20661;-85
2021/05/11 14:25:41;;;;;;;3.30;1.30;;;14.30;74.50;;;;;;5075536;28;20250;-86
2021/05/11 14:28:06;;;;;;;7.57;1.67;;;14.30;75.90;;;;;;5057069;28;20191;-86
2021/05/11 14:30:33;;;;;;;5.83;1.47;;;14.40;75.30;;;;;;5057511;28;20172;-85
2021/05/11 14:32:58;;;;;;;4.13;1.17;;;14.40;75.60;;;;;;5075440;28;20241;-86
2021/05/11 14:35:24;;;;;;;3.27;1.30;;;14.30;76.60;;;;;;5075363;28;20638;-85
2021/05/11 14:37:49;;;;;;;3.23;1.27;;;14.30;75.20;;;;;;5075233;28;20240;-85
2021/05/11 14:40:16;;;;;;;3.13;1.20;;;14.20;74.70;;;;;;5057203;28;20199;-86
2021/05/11 14:42:42;;;;;;;3.20;1.27;;;14.10;76.50;;;;;;5057293;28;20254;-86
2021/05/11 14:45:09;;;;;;;6.03;1.30;;;14.10;77.30;;;;;;5057230;28;20304;-86
2021/05/11 14:47:34;;;;;;;5.07;1.53;;;14.00;77.80;;;;;;5057381;28;20191;-86
2021/05/11 14:50:00;;;;;;;3.33;1.20;;;14.10;79.40;;;;;;5057172;28;20666;-86
2021/05/11 14:52:26;;;;;;;3.97;1.50;;;14.10;79.60;;;;;;5075375;28;20183;-86
2021/05/11 14:54:52;;;;;;;2.87;1.43;;;14.20;79.40;;;;;;5074987;28;20171;-86
2021/05/11 14:57:18;;;;;;;2.30;1.40;;;14.30;79.10;;;;;;5056837;28;20211;-86
2021/05/11 14:59:44;;;;;;;3.83;1.60;;;14.30;77.80;;;;;;5056853;28;20203;-86
2021/05/11 15:02:12;;;;;;;3.70;1.40;;;14.30;77.40;;;;;;5075189;28;20187;-87
2021/05/11 15:04:38;;;;;;;7.47;1.50;;;14.40;77.70;;;;;;5056864;28;20557;-88
2021/05/11 15:07:06;;;;;;;12.30;2.00;;;14.30;77.20;;;;;;5075304;28;20199;-87
2021/05/11 15:09:31;;;;;;;5.00;1.70;;;14.40;78.00;;;;;;5056418;28;20241;-88
2021/05/11 15:11:58;;;;;;;4.67;2.20;;;14.40;77.20;;;;;;5074747;28;20630;-88
2021/05/11 15:14:24;;;;;;;5.30;1.73;;;14.30;76.80;;;;;;5074583;28;20179;-86
2021/05/11 15:16:57;;;;;;;5.90;1.70;;;14.30;76.60;;;;;;5074475;28;20286;-87
2021/05/11 15:19:23;;;;;;;6.23;1.83;;;14.20;77.80;;;;;;5056896;28;20290;-87
2021/05/11 15:21:49;;;;;;;8.53;1.70;;;14.20;78.90;;;;;;5056506;28;20261;-87
2021/05/11 15:24:15;;;;;;;5.40;1.70;;;14.00;77.60;;;;;;5056511;28;20178;-86
2021/05/11 15:26:41;;;;;;;4.37;1.90;;;14.00;78.70;;;;;;5074271;28;20195;-87
2021/05/11 15:29:07;;;;;;;4.83;1.70;;;14.00;79.20;;;;;;5056436;28;20557;-87
2021/05/11 15:31:32;;;;;;;5.10;1.87;;;14.00;80.00;;;;;;5074250;28;20175;-86
2021/05/11 15:33:58;;;;;;;5.30;1.90;;;14.10;79.90;;;;;;5056335;28;20542;-88
2021/05/11 15:36:25;;;;;;;4.23;1.83;;;14.20;79.90;;;;;;5074061;28;20195;-87
2021/05/11 15:38:51;;;;;;;2.40;1.37;;;14.20;78.40;;;;;;5055917;28;20198;-87
2021/05/11 15:41:16;;;;;;;3.43;1.83;;;14.20;78.00;;;;;;5073572;28;20171;-87
2021/05/11 15:43:42;;;;;;;4.40;1.90;;;14.20;78.00;;;;;;5056159;28;20218;-88
2021/05/11 15:46:08;;;;;;;6.63;2.30;;;14.20;78.10;;;;;;5056115;28;20186;-87
2021/05/11 15:48:33;;;;;;;7.83;1.93;;;14.10;79.10;;;;;;5074308;28;20202;-87
2021/05/11 15:50:59;;;;;;;4.60;1.90;;;14.10;79.20;;;;;;5056590;28;20237;-87
2021/05/11 15:53:25;;;;;;;7.77;2.17;;;14.20;79.20;;;;;;5056609;28;20635;-87
2021/05/11 15:55:51;;;;;;;5.07;1.63;;;14.20;78.60;;;;;;5057455;28;20237;-87
2021/05/11 15:58:18;;;;;;;4.17;1.50;;;14.30;79.00;;;;;;5057443;28;20195;-87
2021/05/11 16:00:53;;;;;;;7.80;1.80;;;14.30;78.40;;;;;;5056862;28;20232;-87
2021/05/11 16:03:19;;;;;;;5.13;1.77;;;14.30;78.60;;;;;;5056942;28;20178;-87
2021/05/11 16:05:46;;;;;;;8.90;2.93;;;14.30;78.60;;;;;;5074148;28;20164;-87
2021/05/11 16:08:15;;;;;;;3.07;1.60;;;14.40;78.60;;;;;;5074354;28;20190;-87
2021/05/11 16:10:43;;;;;;;6.57;2.20;;;14.40;78.30;;;;;;5057332;28;20630;-88
2021/05/11 16:13:09;;;;;;;9.50;2.10;;;14.40;77.90;;;;;;5074721;28;20175;-87
2021/05/11 16:15:34;;;;;;;4.93;2.17;;;14.30;78.80;;;;;;5055831;28;20175;-87
2021/05/11 16:18:00;;;;;;;8.50;1.90;;;14.30;79.10;;;;;;5073457;28;20540;-87
2021/05/11 16:20:26;;;;;;;4.63;1.80;;;14.30;79.20;;;;;;5055575;28;20191;-87
2021/05/11 16:22:53;;;;;;;5.67;1.90;;;14.20;79.10;;;;;;5073449;28;20164;-87
2021/05/11 16:25:19;;;;;;;8.20;1.77;;;14.20;79.30;;;;;;5055466;28;20171;-87
2021/05/11 16:27:44;;;;;;;9.47;2.63;;;14.20;79.80;;;;;;5055546;28;20655;-87
2021/05/11 16:30:14;;;;;;;8.13;2.30;;;14.20;79.60;;;;;;5055519;28;20175;-87
2021/05/11 16:32:39;;;;;;;8.30;2.13;;;14.20;79.60;;;;;;5073535;28;20176;-87
2021/05/11 16:35:09;;;;;;;6.33;1.90;;;14.20;79.20;;;;;;5074269;28;20178;-87
2021/05/11 16:37:35;;;;;;;3.33;1.70;;;14.20;79.00;;;;;;5055545;28;20244;-87
2021/05/11 16:40:01;;;;;;;7.30;1.80;;;14.20;79.60;;;;;;5057079;28;20217;-87
2021/05/11 16:42:27;;;;;;;6.70;2.00;;;14.10;79.90;;;;;;5055568;28;20546;-87
2021/05/11 16:44:52;;;;;;;2.63;1.70;;;14.10;80.20;;;;;;5055780;28;20167;-86
2021/05/11 16:47:18;;;;;;;5.33;1.70;;;14.00;80.60;;;;;;5055976;28;20198;-86
2021/05/11 16:49:44;;;;;;;4.80;1.93;;;13.90;80.00;;;;;;5056621;28;20171;-87
2021/05/11 16:52:10;;;;;;;10.93;2.27;;;13.80;80.00;;;;;;5061063;28;20179;-86
2021/05/11 16:54:36;;;;;;;10.30;1.80;;;13.70;79.40;;;;;;5062767;28;20183;-87
2021/05/11 16:57:03;;;;;;;8.23;2.00;;;13.60;79.60;;;;;;5061759;28;20215;-87
2021/05/11 16:59:29;;;;;;;6.57;1.60;;;13.50;79.30;;;;;;5061924;28;20705;-87
2021/05/11 17:01:54;;;;;;;5.97;1.60;;;13.40;79.90;;;;;;5061720;28;20257;-87
2021/05/11 17:04:20;;;;;;;3.83;1.80;;;13.30;80.00;;;;;;5061776;28;20174;-87
2021/05/11 17:06:46;;;;;;;6.10;1.83;;;13.30;80.50;;;;;;5061681;28;20199;-87
2021/05/11 17:09:12;;;;;;;3.83;1.70;;;13.30;80.40;;;;;;5061700;28;20175;-87
2021/05/11 17:11:38;;;;;;;3.67;1.60;;;13.30;80.70;;;;;;5061647;28;20258;-87
2021/05/11 17:14:06;;;;;;;3.27;1.70;;;13.30;80.80;;;;;;5061633;28;20175;-87
2021/05/11 17:16:32;;;;;;;4.07;1.60;;;13.30;81.10;;;;;;5061626;28;20195;-88
2021/05/11 17:18:58;;;;;;;3.63;1.77;;;13.20;79.80;;;;;;5061469;28;20199;-87
2021/05/11 17:21:26;;;;;;;6.50;2.00;;;13.20;80.50;;;;;;5061861;28;20167;-87
2021/05/11 17:23:53;;;;;;;4.00;1.67;;;13.20;80.90;;;;;;5061556;28;20175;-87
2021/05/11 17:26:19;;;;;;;3.67;1.83;;;13.20;81.00;;;;;;5079501;28;20659;-87